sensor_id;sensor_type;location;lat;lon;timestamp;P1;durP1;ratioP1;P2;durP2;ratioP2
20482;SDS011;10400;53.198;6.592;2022-09-03T00:00:51;3.33;;;0.85;;
20482;SDS011;10400;53.198;6.592;2022-09-03T00:03:28;3.45;;;0.80;;
20482;SDS011;10400;53.198;6.592;2022-09-03T00:17:02;2.70;;;1.00;;
20482;SDS011;10400;53.198;6.592;2022-09-03T00:19:35;3.50;;;0.80;;
20482;SDS011;10400;53.198;6.592;2022-09-03T00:22:08;3.40;;;0.90;;
20482;SDS011;10400;53.198;6.592;2022-09-03T00:24:39;3.55;;;0.88;;
20482;SDS011;10400;53.198;6.592;2022-09-03T00:27:10;6.15;;;1.02;;
20482;SDS011;10400;53.198;6.592;2022-09-03T00:29:51;2.47;;;1.23;;
20482;SDS011;10400;53.198;6.592;2022-09-03T00:32:26;3.08;;;0.90;;
20482;SDS011;10400;53.198;6.592;2022-09-03T00:35:15;1.17;;;0.82;;
20482;SDS011;10400;53.198;6.592;2022-09-03T00:37:54;1.95;;;0.90;;
20482;SDS011;10400;53.198;6.592;2022-09-03T00:54:29;4.85;;;0.85;;
20482;SDS011;10400;53.198;6.592;2022-09-03T00:57:27;2.70;;;0.63;;
20482;SDS011;10400;53.198;6.592;2022-09-03T01:02:50;2.42;;;0.85;;
20482;SDS011;10400;53.198;6.592;2022-09-03T01:11:08;2.88;;;0.77;;
20482;SDS011;10400;53.198;6.592;2022-09-03T01:13:45;0.80;;;0.55;;
20482;SDS011;10400;53.198;6.592;2022-09-03T01:19:10;3.63;;;0.98;;
20482;SDS011;10400;53.198;6.592;2022-09-03T01:21:55;3.22;;;0.93;;
20482;SDS011;10400;53.198;6.592;2022-09-03T01:27:48;3.08;;;0.80;;
20482;SDS011;10400;53.198;6.592;2022-09-03T01:30:39;2.65;;;0.88;;
20482;SDS011;10400;53.198;6.592;2022-09-03T01:36:00;1.30;;;0.90;;
20482;SDS011;10400;53.198;6.592;2022-09-03T01:44:34;4.30;;;1.05;;
20482;SDS011;10400;53.198;6.592;2022-09-03T01:50:06;1.90;;;0.90;;
20482;SDS011;10400;53.198;6.592;2022-09-03T01:52:52;4.30;;;1.05;;
20482;SDS011;10400;53.198;6.592;2022-09-03T01:55:35;3.05;;;0.90;;
20482;SDS011;10400;53.198;6.592;2022-09-03T01:58:30;4.57;;;0.88;;
20482;SDS011;10400;53.198;6.592;2022-09-03T02:01:02;2.53;;;0.80;;
20482;SDS011;10400;53.198;6.592;2022-09-03T02:03:35;3.38;;;1.00;;
20482;SDS011;10400;53.198;6.592;2022-09-03T02:06:04;1.73;;;0.90;;
20482;SDS011;10400;53.198;6.592;2022-09-03T02:08:31;3.63;;;0.70;;
20482;SDS011;10400;53.198;6.592;2022-09-03T02:10:57;2.85;;;0.90;;
20482;SDS011;10400;53.198;6.592;2022-09-03T02:13:31;3.05;;;0.93;;
20482;SDS011;10400;53.198;6.592;2022-09-03T02:16:00;3.55;;;0.90;;
20482;SDS011;10400;53.198;6.592;2022-09-03T02:18:38;1.77;;;0.80;;
20482;SDS011;10400;53.198;6.592;2022-09-03T02:21:14;5.72;;;0.80;;
20482;SDS011;10400;53.198;6.592;2022-09-03T02:23:44;3.22;;;0.90;;
20482;SDS011;10400;53.198;6.592;2022-09-03T02:26:10;2.17;;;0.80;;
20482;SDS011;10400;53.198;6.592;2022-09-03T02:28:38;6.18;;;0.80;;
20482;SDS011;10400;53.198;6.592;2022-09-03T02:31:04;3.38;;;0.93;;
20482;SDS011;10400;53.198;6.592;2022-09-03T02:33:31;1.63;;;0.95;;
20482;SDS011;10400;53.198;6.592;2022-09-03T02:36:04;0.93;;;0.80;;
20482;SDS011;10400;53.198;6.592;2022-09-03T02:38:31;2.05;;;1.00;;
20482;SDS011;10400;53.198;6.592;2022-09-03T02:40:57;1.60;;;0.98;;
20482;SDS011;10400;53.198;6.592;2022-09-03T02:43:26;1.42;;;0.93;;
20482;SDS011;10400;53.198;6.592;2022-09-03T02:46:06;4.00;;;1.30;;
20482;SDS011;10400;53.198;6.592;2022-09-03T02:48:36;1.08;;;0.90;;
20482;SDS011;10400;53.198;6.592;2022-09-03T02:51:02;4.82;;;0.85;;
20482;SDS011;10400;53.198;6.592;2022-09-03T02:53:28;1.38;;;0.90;;
20482;SDS011;10400;53.198;6.592;2022-09-03T02:55:57;5.15;;;1.10;;
20482;SDS011;10400;53.198;6.592;2022-09-03T02:58:24;1.25;;;0.90;;
20482;SDS011;10400;53.198;6.592;2022-09-03T03:00:50;3.92;;;1.00;;
20482;SDS011;10400;53.198;6.592;2022-09-03T03:03:16;2.13;;;1.08;;
20482;SDS011;10400;53.198;6.592;2022-09-03T03:05:43;2.17;;;0.90;;
20482;SDS011;10400;53.198;6.592;2022-09-03T03:08:12;8.10;;;1.23;;
20482;SDS011;10400;53.198;6.592;2022-09-03T03:10:45;1.25;;;1.00;;
20482;SDS011;10400;53.198;6.592;2022-09-03T03:13:12;4.57;;;1.30;;
20482;SDS011;10400;53.198;6.592;2022-09-03T03:15:38;5.00;;;1.00;;
20482;SDS011;10400;53.198;6.592;2022-09-03T03:18:04;4.43;;;1.17;;
20482;SDS011;10400;53.198;6.592;2022-09-03T03:20:29;1.20;;;1.02;;
20482;SDS011;10400;53.198;6.592;2022-09-03T03:22:55;2.58;;;1.20;;
20482;SDS011;10400;53.198;6.592;2022-09-03T03:25:21;2.53;;;1.30;;
20482;SDS011;10400;53.198;6.592;2022-09-03T03:27:46;2.30;;;0.88;;
20482;SDS011;10400;53.198;6.592;2022-09-03T03:30:12;4.93;;;1.00;;
20482;SDS011;10400;53.198;6.592;2022-09-03T03:32:38;1.67;;;1.10;;
20482;SDS011;10400;53.198;6.592;2022-09-03T03:35:04;5.03;;;1.20;;
20482;SDS011;10400;53.198;6.592;2022-09-03T03:37:31;2.13;;;1.10;;
20482;SDS011;10400;53.198;6.592;2022-09-03T03:39:57;1.63;;;1.17;;
20482;SDS011;10400;53.198;6.592;2022-09-03T03:42:23;2.40;;;1.27;;
20482;SDS011;10400;53.198;6.592;2022-09-03T03:44:49;2.00;;;1.38;;
20482;SDS011;10400;53.198;6.592;2022-09-03T03:47:14;2.33;;;0.88;;
20482;SDS011;10400;53.198;6.592;2022-09-03T03:49:43;2.08;;;1.00;;
20482;SDS011;10400;53.198;6.592;2022-09-03T03:52:09;4.22;;;0.80;;
20482;SDS011;10400;53.198;6.592;2022-09-03T03:54:34;3.95;;;0.95;;
20482;SDS011;10400;53.198;6.592;2022-09-03T03:57:00;3.47;;;1.10;;
20482;SDS011;10400;53.198;6.592;2022-09-03T03:59:25;1.55;;;0.90;;
20482;SDS011;10400;53.198;6.592;2022-09-03T04:01:54;3.97;;;1.17;;
20482;SDS011;10400;53.198;6.592;2022-09-03T04:04:20;3.33;;;1.08;;
20482;SDS011;10400;53.198;6.592;2022-09-03T04:06:45;3.47;;;1.15;;
20482;SDS011;10400;53.198;6.592;2022-09-03T04:09:11;1.95;;;0.90;;
20482;SDS011;10400;53.198;6.592;2022-09-03T04:11:37;3.92;;;1.23;;
20482;SDS011;10400;53.198;6.592;2022-09-03T04:14:03;2.78;;;1.10;;
20482;SDS011;10400;53.198;6.592;2022-09-03T04:16:28;4.22;;;1.52;;
20482;SDS011;10400;53.198;6.592;2022-09-03T04:18:55;1.50;;;1.10;;
20482;SDS011;10400;53.198;6.592;2022-09-03T04:21:25;3.92;;;1.20;;
20482;SDS011;10400;53.198;6.592;2022-09-03T04:23:52;2.20;;;1.10;;
20482;SDS011;10400;53.198;6.592;2022-09-03T04:26:19;1.73;;;1.10;;
20482;SDS011;10400;53.198;6.592;2022-09-03T04:28:47;4.20;;;1.35;;
20482;SDS011;10400;53.198;6.592;2022-09-03T04:31:13;1.65;;;1.20;;
20482;SDS011;10400;53.198;6.592;2022-09-03T04:33:42;2.00;;;0.93;;
20482;SDS011;10400;53.198;6.592;2022-09-03T04:36:09;1.88;;;1.20;;
20482;SDS011;10400;53.198;6.592;2022-09-03T04:38:37;4.72;;;1.30;;
20482;SDS011;10400;53.198;6.592;2022-09-03T04:41:08;3.75;;;1.40;;
20482;SDS011;10400;53.198;6.592;2022-09-03T04:43:36;3.47;;;1.40;;
20482;SDS011;10400;53.198;6.592;2022-09-03T04:46:05;2.65;;;1.30;;
20482;SDS011;10400;53.198;6.592;2022-09-03T04:48:34;1.75;;;1.38;;
20482;SDS011;10400;53.198;6.592;2022-09-03T04:51:02;3.92;;;1.30;;
20482;SDS011;10400;53.198;6.592;2022-09-03T04:53:31;3.88;;;1.40;;
20482;SDS011;10400;53.198;6.592;2022-09-03T04:56:00;4.07;;;1.58;;
20482;SDS011;10400;53.198;6.592;2022-09-03T04:58:27;3.50;;;1.20;;
20482;SDS011;10400;53.198;6.592;2022-09-03T05:00:53;2.60;;;1.30;;
20482;SDS011;10400;53.198;6.592;2022-09-03T05:03:19;4.63;;;1.17;;
20482;SDS011;10400;53.198;6.592;2022-09-03T05:05:52;3.90;;;1.45;;
20482;SDS011;10400;53.198;6.592;2022-09-03T05:08:19;1.95;;;1.30;;
20482;SDS011;10400;53.198;6.592;2022-09-03T05:10:45;2.60;;;1.55;;
20482;SDS011;10400;53.198;6.592;2022-09-03T05:13:11;2.42;;;1.30;;
20482;SDS011;10400;53.198;6.592;2022-09-03T05:15:37;2.03;;;1.50;;
20482;SDS011;10400;53.198;6.592;2022-09-03T05:18:02;2.72;;;1.45;;
20482;SDS011;10400;53.198;6.592;2022-09-03T05:20:29;3.20;;;1.50;;
20482;SDS011;10400;53.198;6.592;2022-09-03T05:22:56;3.63;;;1.60;;
20482;SDS011;10400;53.198;6.592;2022-09-03T05:25:25;3.60;;;1.73;;
20482;SDS011;10400;53.198;6.592;2022-09-03T05:27:50;4.43;;;1.83;;
20482;SDS011;10400;53.198;6.592;2022-09-03T05:30:18;2.75;;;1.70;;
20482;SDS011;10400;53.198;6.592;2022-09-03T05:32:46;3.92;;;1.40;;
20482;SDS011;10400;53.198;6.592;2022-09-03T05:35:12;1.80;;;1.40;;
20482;SDS011;10400;53.198;6.592;2022-09-03T05:37:38;4.05;;;1.73;;
20482;SDS011;10400;53.198;6.592;2022-09-03T05:40:04;3.25;;;1.40;;
20482;SDS011;10400;53.198;6.592;2022-09-03T05:42:30;2.47;;;1.60;;
20482;SDS011;10400;53.198;6.592;2022-09-03T05:44:59;2.35;;;1.40;;
20482;SDS011;10400;53.198;6.592;2022-09-03T05:47:24;3.67;;;1.80;;
20482;SDS011;10400;53.198;6.592;2022-09-03T05:49:50;3.50;;;1.65;;
20482;SDS011;10400;53.198;6.592;2022-09-03T05:52:16;4.53;;;1.73;;
20482;SDS011;10400;53.198;6.592;2022-09-03T05:54:43;2.47;;;1.55;;
20482;SDS011;10400;53.198;6.592;2022-09-03T05:57:09;3.30;;;1.67;;
20482;SDS011;10400;53.198;6.592;2022-09-03T05:59:35;2.15;;;1.60;;
20482;SDS011;10400;53.198;6.592;2022-09-03T06:02:00;1.83;;;1.30;;
20482;SDS011;10400;53.198;6.592;2022-09-03T06:04:26;3.72;;;1.60;;
20482;SDS011;10400;53.198;6.592;2022-09-03T06:06:51;1.50;;;1.40;;
20482;SDS011;10400;53.198;6.592;2022-09-03T06:09:18;4.82;;;1.60;;
20482;SDS011;10400;53.198;6.592;2022-09-03T06:11:45;2.65;;;1.70;;
20482;SDS011;10400;53.198;6.592;2022-09-03T06:14:13;3.67;;;1.65;;
20482;SDS011;10400;53.198;6.592;2022-09-03T06:16:43;3.80;;;1.50;;
20482;SDS011;10400;53.198;6.592;2022-09-03T06:19:12;2.70;;;1.50;;
20482;SDS011;10400;53.198;6.592;2022-09-03T06:21:39;4.78;;;2.08;;
20482;SDS011;10400;53.198;6.592;2022-09-03T06:24:09;3.22;;;2.00;;
20482;SDS011;10400;53.198;6.592;2022-09-03T06:26:36;5.95;;;1.63;;
20482;SDS011;10400;53.198;6.592;2022-09-03T06:29:02;5.20;;;1.70;;
20482;SDS011;10400;53.198;6.592;2022-09-03T06:31:28;3.65;;;1.83;;
20482;SDS011;10400;53.198;6.592;2022-09-03T06:33:54;3.65;;;1.50;;
20482;SDS011;10400;53.198;6.592;2022-09-03T06:36:21;5.18;;;1.77;;
20482;SDS011;10400;53.198;6.592;2022-09-03T06:38:50;2.10;;;1.15;;
20482;SDS011;10400;53.198;6.592;2022-09-03T06:41:18;4.57;;;1.60;;
20482;SDS011;10400;53.198;6.592;2022-09-03T06:43:45;2.00;;;1.25;;
20482;SDS011;10400;53.198;6.592;2022-09-03T06:46:12;1.13;;;1.00;;
20482;SDS011;10400;53.198;6.592;2022-09-03T06:48:39;4.13;;;1.42;;
20482;SDS011;10400;53.198;6.592;2022-09-03T06:53:33;3.95;;;1.45;;
20482;SDS011;10400;53.198;6.592;2022-09-03T06:56:02;2.10;;;1.38;;
20482;SDS011;10400;53.198;6.592;2022-09-03T06:58:32;3.45;;;1.20;;
20482;SDS011;10400;53.198;6.592;2022-09-03T07:01:11;2.35;;;1.73;;
20482;SDS011;10400;53.198;6.592;2022-09-03T07:03:50;6.32;;;1.42;;
20482;SDS011;10400;53.198;6.592;2022-09-03T07:06:20;3.85;;;1.20;;
20482;SDS011;10400;53.198;6.592;2022-09-03T07:08:47;1.90;;;1.13;;
20482;SDS011;10400;53.198;6.592;2022-09-03T07:11:14;2.45;;;1.23;;
20482;SDS011;10400;53.198;6.592;2022-09-03T07:13:44;1.70;;;1.20;;
20482;SDS011;10400;53.198;6.592;2022-09-03T07:16:33;3.42;;;1.33;;
20482;SDS011;10400;53.198;6.592;2022-09-03T07:19:01;5.40;;;1.50;;
20482;SDS011;10400;53.198;6.592;2022-09-03T07:21:29;4.47;;;1.45;;
20482;SDS011;10400;53.198;6.592;2022-09-03T07:23:57;2.95;;;1.35;;
20482;SDS011;10400;53.198;6.592;2022-09-03T07:28:54;6.00;;;1.33;;
20482;SDS011;10400;53.198;6.592;2022-09-03T07:31:25;7.18;;;1.60;;
20482;SDS011;10400;53.198;6.592;2022-09-03T07:33:52;8.77;;;1.30;;
20482;SDS011;10400;53.198;6.592;2022-09-03T07:36:19;3.28;;;1.42;;
20482;SDS011;10400;53.198;6.592;2022-09-03T07:38:47;2.28;;;1.20;;
20482;SDS011;10400;53.198;6.592;2022-09-03T07:41:13;2.13;;;1.10;;
20482;SDS011;10400;53.198;6.592;2022-09-03T07:43:43;2.35;;;1.20;;
20482;SDS011;10400;53.198;6.592;2022-09-03T07:46:16;3.53;;;1.30;;
20482;SDS011;10400;53.198;6.592;2022-09-03T07:51:16;2.75;;;1.35;;
20482;SDS011;10400;53.198;6.592;2022-09-03T07:53:43;3.03;;;1.10;;
20482;SDS011;10400;53.198;6.592;2022-09-03T07:56:10;2.22;;;1.20;;
20482;SDS011;10400;53.198;6.592;2022-09-03T07:58:36;2.63;;;1.13;;
20482;SDS011;10400;53.198;6.592;2022-09-03T08:01:07;3.58;;;1.10;;
20482;SDS011;10400;53.198;6.592;2022-09-03T08:03:34;2.58;;;1.30;;
20482;SDS011;10400;53.198;6.592;2022-09-03T08:06:01;3.30;;;1.30;;
20482;SDS011;10400;53.198;6.592;2022-09-03T08:08:28;2.05;;;1.30;;
20482;SDS011;10400;53.198;6.592;2022-09-03T08:10:54;5.28;;;1.33;;
20482;SDS011;10400;53.198;6.592;2022-09-03T08:13:22;1.58;;;1.17;;
20482;SDS011;10400;53.198;6.592;2022-09-03T08:15:54;1.55;;;1.05;;
20482;SDS011;10400;53.198;6.592;2022-09-03T08:18:20;2.88;;;1.10;;
20482;SDS011;10400;53.198;6.592;2022-09-03T08:20:46;5.13;;;1.35;;
20482;SDS011;10400;53.198;6.592;2022-09-03T08:23:12;2.15;;;1.20;;
20482;SDS011;10400;53.198;6.592;2022-09-03T08:25:38;6.00;;;1.17;;
20482;SDS011;10400;53.198;6.592;2022-09-03T08:28:04;3.25;;;1.00;;
20482;SDS011;10400;53.198;6.592;2022-09-03T08:30:30;4.13;;;1.13;;
20482;SDS011;10400;53.198;6.592;2022-09-03T08:32:55;2.38;;;1.20;;
20482;SDS011;10400;53.198;6.592;2022-09-03T08:35:21;4.45;;;1.30;;
20482;SDS011;10400;53.198;6.592;2022-09-03T08:37:47;5.43;;;1.10;;
20482;SDS011;10400;53.198;6.592;2022-09-03T08:40:15;3.88;;;1.10;;
20482;SDS011;10400;53.198;6.592;2022-09-03T08:45:20;5.50;;;0.90;;
20482;SDS011;10400;53.198;6.592;2022-09-03T08:47:47;4.35;;;1.10;;
20482;SDS011;10400;53.198;6.592;2022-09-03T08:50:28;3.28;;;1.50;;
20482;SDS011;10400;53.198;6.592;2022-09-03T08:55:59;5.07;;;1.23;;
20482;SDS011;10400;53.198;6.592;2022-09-03T08:58:32;1.50;;;1.25;;
20482;SDS011;10400;53.198;6.592;2022-09-03T09:03:40;3.00;;;1.10;;
20482;SDS011;10400;53.198;6.592;2022-09-03T09:14:39;1.40;;;1.17;;
20482;SDS011;10400;53.198;6.592;2022-09-03T09:22:37;5.13;;;1.20;;
20482;SDS011;10400;53.198;6.592;2022-09-03T09:25:33;5.13;;;1.20;;
20482;SDS011;10400;53.198;6.592;2022-09-03T09:30:46;4.00;;;1.20;;
20482;SDS011;10400;53.198;6.592;2022-09-03T09:33:14;6.63;;;1.10;;
20482;SDS011;10400;53.198;6.592;2022-09-03T09:35:41;3.00;;;0.93;;
20482;SDS011;10400;53.198;6.592;2022-09-03T09:38:08;4.07;;;1.42;;
20482;SDS011;10400;53.198;6.592;2022-09-03T09:40:39;1.88;;;1.00;;
20482;SDS011;10400;53.198;6.592;2022-09-03T09:43:10;5.72;;;1.20;;
20482;SDS011;10400;53.198;6.592;2022-09-03T09:45:41;4.82;;;1.20;;
20482;SDS011;10400;53.198;6.592;2022-09-03T09:48:27;6.45;;;1.85;;
20482;SDS011;10400;53.198;6.592;2022-09-03T09:51:02;2.50;;;0.98;;
20482;SDS011;10400;53.198;6.592;2022-09-03T09:53:33;4.00;;;1.13;;
20482;SDS011;10400;53.198;6.592;2022-09-03T09:56:00;2.90;;;1.25;;
20482;SDS011;10400;53.198;6.592;2022-09-03T09:58:29;2.67;;;1.00;;
20482;SDS011;10400;53.198;6.592;2022-09-03T10:01:03;2.22;;;0.98;;
20482;SDS011;10400;53.198;6.592;2022-09-03T10:03:55;4.28;;;1.05;;
20482;SDS011;10400;53.198;6.592;2022-09-03T10:06:22;4.38;;;1.13;;
20482;SDS011;10400;53.198;6.592;2022-09-03T10:09:12;4.65;;;1.15;;
20482;SDS011;10400;53.198;6.592;2022-09-03T10:12:30;2.47;;;0.80;;
20482;SDS011;10400;53.198;6.592;2022-09-03T10:14:35;2.05;;;0.88;;
20482;SDS011;10400;53.198;6.592;2022-09-03T10:22:49;2.42;;;0.70;;
20482;SDS011;10400;53.198;6.592;2022-09-03T10:28:21;3.22;;;1.30;;
20482;SDS011;10400;53.198;6.592;2022-09-03T10:31:02;2.50;;;1.00;;
20482;SDS011;10400;53.198;6.592;2022-09-03T10:33:34;6.35;;;1.02;;
20482;SDS011;10400;53.198;6.592;2022-09-03T10:36:10;3.53;;;1.08;;
20482;SDS011;10400;53.198;6.592;2022-09-03T10:38:48;2.25;;;0.77;;
20482;SDS011;10400;53.198;6.592;2022-09-03T10:49:19;5.75;;;1.25;;
20482;SDS011;10400;53.198;6.592;2022-09-03T10:54:51;1.35;;;0.98;;
20482;SDS011;10400;53.198;6.592;2022-09-03T10:57:30;5.72;;;1.10;;
20482;SDS011;10400;53.198;6.592;2022-09-03T11:00:04;4.50;;;1.02;;
20482;SDS011;10400;53.198;6.592;2022-09-03T11:02:45;6.05;;;1.10;;
20482;SDS011;10400;53.198;6.592;2022-09-03T11:05:22;3.92;;;1.17;;
20482;SDS011;10400;53.198;6.592;2022-09-03T11:07:58;5.15;;;1.00;;
20482;SDS011;10400;53.198;6.592;2022-09-03T11:10:31;4.20;;;1.00;;
20482;SDS011;10400;53.198;6.592;2022-09-03T11:15:35;2.13;;;0.80;;
20482;SDS011;10400;53.198;6.592;2022-09-03T11:20:45;3.72;;;0.80;;
20482;SDS011;10400;53.198;6.592;2022-09-03T11:23:13;5.45;;;1.38;;
20482;SDS011;10400;53.198;6.592;2022-09-03T11:25:46;3.83;;;0.75;;
20482;SDS011;10400;53.198;6.592;2022-09-03T11:33:53;2.47;;;1.00;;
20482;SDS011;10400;53.198;6.592;2022-09-03T11:36:31;2.90;;;0.90;;
20482;SDS011;10400;53.198;6.592;2022-09-03T11:38:59;4.22;;;1.17;;
20482;SDS011;10400;53.198;6.592;2022-09-03T11:41:36;1.80;;;0.75;;
20482;SDS011;10400;53.198;6.592;2022-09-03T11:44:10;6.18;;;0.85;;
20482;SDS011;10400;53.198;6.592;2022-09-03T11:46:55;1.58;;;0.60;;
20482;SDS011;10400;53.198;6.592;2022-09-03T11:49:29;2.50;;;0.70;;
20482;SDS011;10400;53.198;6.592;2022-09-03T11:52:06;5.20;;;1.08;;
20482;SDS011;10400;53.198;6.592;2022-09-03T11:54:41;3.95;;;0.80;;
20482;SDS011;10400;53.198;6.592;2022-09-03T11:57:13;1.98;;;0.70;;
20482;SDS011;10400;53.198;6.592;2022-09-03T11:59:45;6.15;;;1.00;;
20482;SDS011;10400;53.198;6.592;2022-09-03T12:02:28;5.93;;;0.77;;
20482;SDS011;10400;53.198;6.592;2022-09-03T12:07:30;1.95;;;0.82;;
20482;SDS011;10400;53.198;6.592;2022-09-03T12:10:22;7.68;;;1.00;;
20482;SDS011;10400;53.198;6.592;2022-09-03T12:13:18;0.68;;;0.52;;
20482;SDS011;10400;53.198;6.592;2022-09-03T12:18:53;1.88;;;0.70;;
20482;SDS011;10400;53.198;6.592;2022-09-03T12:21:24;5.88;;;0.80;;
20482;SDS011;10400;53.198;6.592;2022-09-03T12:23:50;2.80;;;1.02;;
20482;SDS011;10400;53.198;6.592;2022-09-03T12:26:19;2.75;;;0.80;;
20482;SDS011;10400;53.198;6.592;2022-09-03T12:28:48;7.90;;;1.20;;
20482;SDS011;10400;53.198;6.592;2022-09-03T12:33:55;4.30;;;1.23;;
20482;SDS011;10400;53.198;6.592;2022-09-03T12:36:24;2.22;;;0.70;;
20482;SDS011;10400;53.198;6.592;2022-09-03T12:38:51;1.17;;;0.80;;
20482;SDS011;10400;53.198;6.592;2022-09-03T12:41:21;3.00;;;0.90;;
20482;SDS011;10400;53.198;6.592;2022-09-03T12:43:51;1.10;;;0.63;;
20482;SDS011;10400;53.198;6.592;2022-09-03T12:46:21;4.63;;;0.93;;
20482;SDS011;10400;53.198;6.592;2022-09-03T12:48:54;4.03;;;0.77;;
20482;SDS011;10400;53.198;6.592;2022-09-03T12:51:32;0.85;;;0.70;;
20482;SDS011;10400;53.198;6.592;2022-09-03T12:54:08;4.43;;;1.00;;
20482;SDS011;10400;53.198;6.592;2022-09-03T12:56:48;2.63;;;0.80;;
20482;SDS011;10400;53.198;6.592;2022-09-03T12:59:20;3.92;;;0.98;;
20482;SDS011;10400;53.198;6.592;2022-09-03T13:01:52;5.28;;;0.75;;
20482;SDS011;10400;53.198;6.592;2022-09-03T13:04:22;3.45;;;0.80;;
20482;SDS011;10400;53.198;6.592;2022-09-03T13:06:53;6.70;;;0.65;;
20482;SDS011;10400;53.198;6.592;2022-09-03T13:09:27;2.40;;;0.85;;
20482;SDS011;10400;53.198;6.592;2022-09-03T13:11:56;3.75;;;0.88;;
20482;SDS011;10400;53.198;6.592;2022-09-03T13:14:23;4.00;;;1.20;;
20482;SDS011;10400;53.198;6.592;2022-09-03T13:17:26;2.25;;;0.95;;
20482;SDS011;10400;53.198;6.592;2022-09-03T13:20:21;3.05;;;0.90;;
20482;SDS011;10400;53.198;6.592;2022-09-03T13:28:09;3.75;;;0.88;;
20482;SDS011;10400;53.198;6.592;2022-09-03T13:33:19;4.40;;;0.82;;
20482;SDS011;10400;53.198;6.592;2022-09-03T13:35:58;3.25;;;0.70;;
20482;SDS011;10400;53.198;6.592;2022-09-03T13:41:13;3.58;;;0.90;;
20482;SDS011;10400;53.198;6.592;2022-09-03T13:44:02;4.10;;;0.80;;
20482;SDS011;10400;53.198;6.592;2022-09-03T13:49:57;3.25;;;0.90;;
20482;SDS011;10400;53.198;6.592;2022-09-03T13:58:27;3.85;;;0.90;;
20482;SDS011;10400;53.198;6.592;2022-09-03T14:03:42;5.82;;;0.80;;
20482;SDS011;10400;53.198;6.592;2022-09-03T14:14:16;4.00;;;0.70;;
20482;SDS011;10400;53.198;6.592;2022-09-03T14:17:01;1.65;;;1.10;;
20482;SDS011;10400;53.198;6.592;2022-09-03T14:25:19;2.95;;;0.70;;
20482;SDS011;10400;53.198;6.592;2022-09-03T14:27:47;3.42;;;0.73;;
20482;SDS011;10400;53.198;6.592;2022-09-03T14:35:44;2.47;;;0.80;;
20482;SDS011;10400;53.198;6.592;2022-09-03T14:38:56;3.92;;;1.08;;
20482;SDS011;10400;53.198;6.592;2022-09-03T14:42:01;6.93;;;0.88;;
20482;SDS011;10400;53.198;6.592;2022-09-03T14:47:28;1.83;;;0.63;;
20482;SDS011;10400;53.198;6.592;2022-09-03T14:50:10;4.68;;;0.90;;
20482;SDS011;10400;53.198;6.592;2022-09-03T14:56:27;1.90;;;0.70;;
20482;SDS011;10400;53.198;6.592;2022-09-03T15:02:28;2.35;;;1.30;;
20482;SDS011;10400;53.198;6.592;2022-09-03T15:07:43;2.55;;;1.02;;
20482;SDS011;10400;53.198;6.592;2022-09-03T15:13:08;2.28;;;0.93;;
20482;SDS011;10400;53.198;6.592;2022-09-03T15:20:53;4.13;;;1.00;;
20482;SDS011;10400;53.198;6.592;2022-09-03T15:29:08;3.33;;;1.00;;
20482;SDS011;10400;53.198;6.592;2022-09-03T15:31:56;1.88;;;0.90;;
20482;SDS011;10400;53.198;6.592;2022-09-03T15:37:30;0.80;;;0.70;;
20482;SDS011;10400;53.198;6.592;2022-09-03T15:40:02;1.33;;;0.73;;
20482;SDS011;10400;53.198;6.592;2022-09-03T15:42:32;4.20;;;0.90;;
20482;SDS011;10400;53.198;6.592;2022-09-03T15:45:13;3.53;;;0.82;;
20482;SDS011;10400;53.198;6.592;2022-09-03T15:50:37;2.13;;;1.10;;
20482;SDS011;10400;53.198;6.592;2022-09-03T15:53:24;3.42;;;0.98;;
20482;SDS011;10400;53.198;6.592;2022-09-03T15:58:38;5.53;;;1.33;;
20482;SDS011;10400;53.198;6.592;2022-09-03T16:01:19;2.58;;;0.80;;
20482;SDS011;10400;53.198;6.592;2022-09-03T16:07:20;4.82;;;1.40;;
20482;SDS011;10400;53.198;6.592;2022-09-03T16:10:17;2.58;;;1.10;;
20482;SDS011;10400;53.198;6.592;2022-09-03T16:15:19;5.20;;;1.05;;
20482;SDS011;10400;53.198;6.592;2022-09-03T16:18:35;4.72;;;1.05;;
20482;SDS011;10400;53.198;6.592;2022-09-03T16:21:01;2.75;;;1.00;;
20482;SDS011;10400;53.198;6.592;2022-09-03T16:29:40;4.25;;;0.95;;
20482;SDS011;10400;53.198;6.592;2022-09-03T16:49:06;1.90;;;1.00;;
20482;SDS011;10400;53.198;6.592;2022-09-03T16:51:55;3.45;;;1.20;;
20482;SDS011;10400;53.198;6.592;2022-09-03T16:54:54;1.90;;;0.70;;
20482;SDS011;10400;53.198;6.592;2022-09-03T17:02:42;1.88;;;0.80;;
20482;SDS011;10400;53.198;6.592;2022-09-03T17:05:29;5.38;;;1.05;;
20482;SDS011;10400;53.198;6.592;2022-09-03T17:16:11;3.55;;;1.00;;
20482;SDS011;10400;53.198;6.592;2022-09-03T17:19:05;5.65;;;1.20;;
20482;SDS011;10400;53.198;6.592;2022-09-03T17:21:39;4.05;;;0.90;;
20482;SDS011;10400;53.198;6.592;2022-09-03T17:27:48;3.60;;;1.00;;
20482;SDS011;10400;53.198;6.592;2022-09-03T17:36:09;5.78;;;0.82;;
20482;SDS011;10400;53.198;6.592;2022-09-03T17:46:44;3.45;;;0.98;;
20482;SDS011;10400;53.198;6.592;2022-09-03T17:49:30;6.03;;;0.90;;
20482;SDS011;10400;53.198;6.592;2022-09-03T17:52:17;5.93;;;1.20;;
20482;SDS011;10400;53.198;6.592;2022-09-03T17:54:59;3.13;;;0.80;;
20482;SDS011;10400;53.198;6.592;2022-09-03T17:57:46;3.85;;;1.10;;
20482;SDS011;10400;53.198;6.592;2022-09-03T18:03:26;4.53;;;1.13;;
20482;SDS011;10400;53.198;6.592;2022-09-03T18:06:18;2.40;;;0.80;;
20482;SDS011;10400;53.198;6.592;2022-09-03T18:11:48;2.30;;;0.80;;
20482;SDS011;10400;53.198;6.592;2022-09-03T18:16:55;3.78;;;1.02;;
20482;SDS011;10400;53.198;6.592;2022-09-03T18:19:45;5.22;;;0.90;;
20482;SDS011;10400;53.198;6.592;2022-09-03T18:22:58;2.92;;;1.08;;
20482;SDS011;10400;53.198;6.592;2022-09-03T18:25:45;5.03;;;1.20;;
20482;SDS011;10400;53.198;6.592;2022-09-03T18:28:37;7.60;;;0.93;;
20482;SDS011;10400;53.198;6.592;2022-09-03T18:31:25;7.18;;;0.98;;
20482;SDS011;10400;53.198;6.592;2022-09-03T18:34:10;3.42;;;1.33;;
20482;SDS011;10400;53.198;6.592;2022-09-03T18:36:56;4.28;;;1.00;;
20482;SDS011;10400;53.198;6.592;2022-09-03T18:39:42;10.57;;;1.33;;
20482;SDS011;10400;53.198;6.592;2022-09-03T18:42:31;9.63;;;1.52;;
20482;SDS011;10400;53.198;6.592;2022-09-03T18:52:03;9.15;;;1.23;;
20482;SDS011;10400;53.198;6.592;2022-09-03T19:10:23;6.57;;;1.10;;
20482;SDS011;10400;53.198;6.592;2022-09-03T19:16:08;4.03;;;1.00;;
20482;SDS011;10400;53.198;6.592;2022-09-03T19:19:11;2.63;;;1.20;;
20482;SDS011;10400;53.198;6.592;2022-09-03T19:22:08;3.72;;;0.98;;
20482;SDS011;10400;53.198;6.592;2022-09-03T19:25:04;5.32;;;0.90;;
20482;SDS011;10400;53.198;6.592;2022-09-03T19:46:21;4.53;;;0.80;;
20482;SDS011;10400;53.198;6.592;2022-09-03T19:49:38;2.97;;;0.93;;
20482;SDS011;10400;53.198;6.592;2022-09-03T19:55:11;4.35;;;0.90;;
20482;SDS011;10400;53.198;6.592;2022-09-03T19:58:01;2.67;;;0.80;;
20482;SDS011;10400;53.198;6.592;2022-09-03T20:00:45;1.85;;;1.23;;
20482;SDS011;10400;53.198;6.592;2022-09-03T20:03:29;3.92;;;1.10;;
20482;SDS011;10400;53.198;6.592;2022-09-03T20:06:13;3.35;;;1.05;;
20482;SDS011;10400;53.198;6.592;2022-09-03T20:08:59;4.45;;;1.08;;
20482;SDS011;10400;53.198;6.592;2022-09-03T20:11:48;6.53;;;1.10;;
20482;SDS011;10400;53.198;6.592;2022-09-03T20:14:14;3.08;;;0.90;;
20482;SDS011;10400;53.198;6.592;2022-09-03T20:16:44;4.00;;;0.90;;
20482;SDS011;10400;53.198;6.592;2022-09-03T20:24:42;5.35;;;1.15;;
20482;SDS011;10400;53.198;6.592;2022-09-03T20:30:19;1.88;;;0.98;;
20482;SDS011;10400;53.198;6.592;2022-09-03T20:32:55;2.63;;;1.10;;
20482;SDS011;10400;53.198;6.592;2022-09-03T20:35:42;4.60;;;1.13;;
20482;SDS011;10400;53.198;6.592;2022-09-03T20:43:56;4.85;;;1.13;;
20482;SDS011;10400;53.198;6.592;2022-09-03T20:46:51;4.53;;;1.17;;
20482;SDS011;10400;53.198;6.592;2022-09-03T20:52:17;1.23;;;0.95;;
20482;SDS011;10400;53.198;6.592;2022-09-03T20:55:10;3.95;;;0.93;;
20482;SDS011;10400;53.198;6.592;2022-09-03T20:57:47;7.50;;;1.25;;